createdAt,value
2019-05-10T00:04:30.868Z,7.50
2019-05-10T00:07:17.752Z,7.83
2019-05-10T00:09:45.933Z,8.08
2019-05-10T00:12:19.023Z,8.40
2019-05-10T00:14:49.440Z,7.60
2019-05-10T00:17:19.571Z,8.30
2019-05-10T00:19:48.573Z,8.00
2019-05-10T00:22:17.137Z,8.73
2019-05-10T00:25:00.770Z,8.40
2019-05-10T00:27:17.276Z,8.90
2019-05-10T00:29:46.113Z,9.63
2019-05-10T00:32:14.896Z,8.88
2019-05-10T00:34:45.312Z,9.57
2019-05-10T00:37:14.124Z,9.43
2019-05-10T00:39:44.776Z,9.15
2019-05-10T00:42:14.393Z,8.83
2019-05-10T00:44:44.749Z,8.33
2019-05-10T00:47:13.303Z,9.03
2019-05-10T00:49:43.925Z,8.50
2019-05-10T00:52:12.645Z,9.67
2019-05-10T00:54:41.193Z,10.23
2019-05-10T00:57:11.582Z,10.95
2019-05-10T00:59:41.283Z,10.80
2019-05-10T01:02:10.078Z,11.20
2019-05-10T01:04:38.900Z,10.23
2019-05-10T01:07:07.383Z,9.20
2019-05-10T01:09:47.897Z,9.68
2019-05-10T01:12:16.504Z,9.37
2019-05-10T01:14:45.289Z,9.63
2019-05-10T01:17:14.128Z,8.95
2019-05-10T01:19:48.894Z,9.03
2019-05-10T01:22:17.573Z,9.90
2019-05-10T01:24:46.365Z,10.50
2019-05-10T01:27:15.446Z,11.25
2019-05-10T01:29:47.248Z,11.78
2019-05-10T01:32:16.012Z,12.93
2019-05-10T01:34:44.823Z,12.53
2019-05-10T01:37:13.985Z,12.10
2019-05-10T01:39:44.654Z,13.05
2019-05-10T01:42:14.501Z,12.03
2019-05-10T01:44:43.406Z,13.47
2019-05-10T01:47:11.905Z,13.73
2019-05-10T01:49:40.749Z,12.87
2019-05-10T01:52:09.548Z,13.60
2019-05-10T01:54:38.336Z,12.33
2019-05-10T01:57:07.171Z,12.53
2019-05-10T01:59:35.964Z,12.03
2019-05-10T02:02:05.599Z,11.90
2019-05-10T02:04:34.437Z,12.40
2019-05-10T02:07:02.942Z,12.68
2019-05-10T02:09:33.487Z,13.40
2019-05-10T02:12:01.598Z,12.00
2019-05-10T02:14:30.100Z,11.40
2019-05-10T02:16:59.183Z,11.68
2019-05-10T02:19:27.992Z,12.43
2019-05-10T02:21:57.088Z,12.28
2019-05-10T02:24:25.984Z,11.68
2019-05-10T02:26:55.116Z,12.78
2019-05-10T02:29:23.928Z,11.33
2019-05-10T02:31:52.726Z,12.00
2019-05-10T02:34:21.348Z,11.03
2019-05-10T02:36:50.136Z,9.90
2019-05-10T02:39:18.631Z,10.57
2019-05-10T02:41:50.655Z,11.03
2019-05-10T02:44:19.452Z,11.28
2019-05-10T02:46:48.251Z,11.20
2019-05-10T02:49:17.016Z,12.47
2019-05-10T02:51:45.818Z,12.03
2019-05-10T02:54:14.442Z,13.27
2019-05-10T02:56:44.229Z,15.33
2019-05-10T02:59:13.872Z,15.78
2019-05-10T03:01:45.736Z,15.20
2019-05-10T03:04:15.042Z,15.30
2019-05-10T03:06:43.930Z,14.90
2019-05-10T03:09:12.660Z,14.57
2019-05-10T03:11:49.034Z,14.50
2019-05-10T03:14:18.267Z,13.93
2019-05-10T03:16:48.519Z,14.33
2019-05-10T03:19:19.194Z,14.95
2019-05-10T03:21:49.491Z,14.07
2019-05-10T03:24:18.377Z,13.70
2019-05-10T03:26:51.361Z,13.35
2019-05-10T03:29:19.127Z,12.77
2019-05-10T03:31:48.017Z,11.67
2019-05-10T03:34:16.924Z,12.10
2019-05-10T03:36:45.491Z,11.57
2019-05-10T03:39:14.586Z,11.30
2019-05-10T03:41:43.987Z,11.40
2019-05-10T03:44:13.180Z,10.98
2019-05-10T03:46:41.764Z,11.70
2019-05-10T03:49:11.987Z,11.90
2019-05-10T03:51:40.872Z,11.30
2019-05-10T03:54:09.786Z,10.93
2019-05-10T03:56:38.650Z,10.77
2019-05-10T03:59:07.443Z,11.85
2019-05-10T04:01:36.834Z,10.60
2019-05-10T04:04:09.491Z,10.42
2019-05-10T04:06:37.601Z,9.80
2019-05-10T04:09:06.682Z,10.27
2019-05-10T04:11:35.564Z,11.13
2019-05-10T04:14:05.895Z,10.74
2019-05-10T04:16:34.593Z,9.45
2019-05-10T04:19:03.163Z,10.32
2019-05-10T04:21:31.736Z,9.75
2019-05-10T04:24:00.939Z,9.63
2019-05-10T04:26:30.146Z,10.10
2019-05-10T04:28:58.720Z,10.78
2019-05-10T04:31:27.311Z,10.30
2019-05-10T04:33:56.499Z,11.03
2019-05-10T04:36:25.415Z,10.72
2019-05-10T04:38:54.493Z,11.33
2019-05-10T04:41:23.060Z,12.07
2019-05-10T04:43:52.730Z,11.90
2019-05-10T04:46:21.345Z,11.27
2019-05-10T04:48:50.152Z,10.72
2019-05-10T04:51:18.726Z,12.07
2019-05-10T04:53:47.330Z,11.12
2019-05-10T04:56:16.091Z,10.97
2019-05-10T04:58:46.115Z,10.65
2019-05-10T05:01:14.988Z,10.93
2019-05-10T05:03:45.731Z,11.73
2019-05-10T05:06:14.731Z,11.35
2019-05-10T05:08:44.154Z,11.27
2019-05-10T05:11:13.344Z,11.77
2019-05-10T05:13:42.304Z,12.40
2019-05-10T05:16:11.407Z,12.47
2019-05-10T05:18:39.983Z,12.00
2019-05-10T05:21:08.872Z,11.57
2019-05-10T05:23:37.656Z,11.20
2019-05-10T05:26:06.718Z,12.34
2019-05-10T05:28:35.451Z,11.68
2019-05-10T05:31:05.452Z,12.13
2019-05-10T05:33:34.742Z,11.60
2019-05-10T05:36:04.167Z,12.23
2019-05-10T05:38:33.047Z,11.23
2019-05-10T05:41:01.726Z,11.88
2019-05-10T05:43:31.038Z,9.78
2019-05-10T05:46:00.117Z,10.40
2019-05-10T05:48:39.783Z,10.20
2019-05-10T05:51:00.368Z,11.00
2019-05-10T05:53:29.566Z,10.55
2019-05-10T05:56:03.103Z,9.70
2019-05-10T05:58:29.576Z,9.75
2019-05-10T06:00:58.165Z,9.48
2019-05-10T06:03:27.908Z,9.93
2019-05-10T06:05:57.388Z,10.30
2019-05-10T06:08:26.073Z,10.13
2019-05-10T06:10:57.579Z,10.43
2019-05-10T06:13:30.333Z,9.65
2019-05-10T06:15:59.876Z,10.90
2019-05-10T06:18:26.737Z,10.23
2019-05-10T06:20:55.638Z,10.10
2019-05-10T06:23:29.200Z,9.30
2019-05-10T06:25:56.269Z,9.90
2019-05-10T06:28:38.069Z,9.35
2019-05-10T06:30:56.502Z,9.17
2019-05-10T06:33:25.213Z,8.93
2019-05-10T06:35:54.281Z,8.93
2019-05-10T06:38:22.864Z,9.70
2019-05-10T06:40:51.576Z,9.58
2019-05-10T06:43:20.766Z,8.40
2019-05-10T06:45:52.362Z,7.77
2019-05-10T06:48:27.606Z,7.83
2019-05-10T06:50:50.898Z,7.67
2019-05-10T06:53:23.133Z,7.67
2019-05-10T06:55:50.616Z,7.22
2019-05-10T06:58:19.197Z,5.97
2019-05-10T07:00:48.085Z,6.17
2019-05-10T07:03:16.977Z,6.03
2019-05-10T07:05:46.588Z,5.47
2019-05-10T07:08:20.388Z,5.60
2019-05-10T07:10:46.526Z,5.90
2019-05-10T07:13:15.400Z,4.90
2019-05-10T07:15:46.142Z,4.80
2019-05-10T07:18:16.736Z,4.40
2019-05-10T07:20:46.785Z,4.33
2019-05-10T07:23:15.365Z,4.87
2019-05-10T07:25:46.814Z,4.60
2019-05-10T07:28:17.606Z,3.80
2019-05-10T07:30:46.475Z,4.08
2019-05-10T07:33:15.032Z,4.57
2019-05-10T07:35:43.817Z,3.72
2019-05-10T07:38:12.338Z,3.77
2019-05-10T07:40:41.281Z,4.12
2019-05-10T07:43:09.966Z,3.87
2019-05-10T07:45:38.751Z,3.50
2019-05-10T07:48:08.023Z,4.03
2019-05-10T07:50:42.561Z,3.60
2019-05-10T07:53:08.084Z,3.85
2019-05-10T07:55:36.596Z,3.77
2019-05-10T07:58:07.055Z,4.10
2019-05-10T08:00:38.010Z,4.03
2019-05-10T08:03:15.759Z,4.20
2019-05-10T08:05:39.152Z,4.20
2019-05-10T08:08:09.597Z,4.47
2019-05-10T08:10:39.422Z,5.12
2019-05-10T08:13:08.505Z,5.00
2019-05-10T08:15:38.390Z,3.93
2019-05-10T08:18:09.653Z,4.50
2019-05-10T08:20:49.472Z,4.40
2019-05-10T08:23:07.847Z,4.40
2019-05-10T08:25:43.803Z,4.72
2019-05-10T08:28:06.649Z,4.10
2019-05-10T08:30:42.591Z,4.07
2019-05-10T08:33:09.933Z,3.50
2019-05-10T08:35:39.268Z,3.80
2019-05-10T08:38:08.469Z,3.10
2019-05-10T08:40:38.165Z,3.40
2019-05-10T08:43:09.702Z,3.40
2019-05-10T08:45:38.931Z,3.62
2019-05-10T08:48:07.797Z,3.47
2019-05-10T08:50:49.618Z,3.60
2019-05-10T08:53:10.949Z,3.58
2019-05-10T08:55:37.646Z,3.37
2019-05-10T08:58:06.324Z,3.98
2019-05-10T09:00:49.548Z,3.37
2019-05-10T09:03:10.411Z,3.50
2019-05-10T09:05:39.637Z,3.47
2019-05-10T09:08:10.891Z,3.35
2019-05-10T09:10:36.979Z,2.92
2019-05-10T09:13:06.904Z,2.80
2019-05-10T09:15:35.383Z,3.45
2019-05-10T09:18:07.503Z,3.70
2019-05-10T09:20:35.849Z,6.97
2019-05-10T09:23:08.566Z,2.42
2019-05-10T09:25:36.696Z,2.45
2019-05-10T09:28:11.580Z,2.56
2019-05-10T09:30:36.856Z,2.52
2019-05-10T09:33:13.374Z,2.70
2019-05-10T09:35:39.011Z,3.05
2019-05-10T09:38:07.519Z,2.50
2019-05-10T09:40:42.440Z,2.60
2019-05-10T09:43:09.621Z,2.63
2019-05-10T09:45:37.029Z,3.20
2019-05-10T09:48:05.917Z,2.65
2019-05-10T09:50:41.378Z,3.05
2019-05-10T09:53:27.461Z,2.50
2019-05-10T09:56:00.179Z,2.40
2019-05-10T09:58:24.934Z,2.33
2019-05-10T10:01:09.417Z,2.58
2019-05-10T10:03:24.563Z,2.40
2019-05-10T10:05:55.373Z,2.10
2019-05-10T10:08:23.981Z,2.63
2019-05-10T10:10:52.563Z,2.12
2019-05-10T10:13:38.602Z,2.20
2019-05-10T10:15:52.477Z,2.47
2019-05-10T10:18:25.314Z,2.50
2019-05-10T10:20:52.121Z,2.75
2019-05-10T10:23:24.815Z,2.40
2019-05-10T10:25:51.121Z,2.23
2019-05-10T10:28:22.525Z,2.40
2019-05-10T10:30:58.927Z,2.55
2019-05-10T10:33:25.364Z,3.23
2019-05-10T10:35:50.771Z,3.10
2019-05-10T10:38:19.344Z,2.67
2019-05-10T10:40:48.225Z,3.30
2019-05-10T10:43:17.989Z,2.20
2019-05-10T10:45:47.029Z,2.77
2019-05-10T10:48:17.732Z,2.43
2019-05-10T10:50:51.223Z,2.27
2019-05-10T10:53:18.032Z,2.57
2019-05-10T10:55:53.988Z,2.20
2019-05-10T10:58:18.569Z,2.55
2019-05-10T11:00:48.325Z,2.33
2019-05-10T11:03:17.382Z,2.53
2019-05-10T11:05:46.046Z,2.98
2019-05-10T11:08:15.034Z,2.40
2019-05-10T11:10:46.777Z,2.63
2019-05-10T11:13:23.712Z,2.70
2019-05-10T11:15:47.137Z,2.20
2019-05-10T11:18:16.094Z,2.40
2019-05-10T11:20:49.513Z,2.43
2019-05-10T11:23:16.797Z,3.08
2019-05-10T11:25:54.668Z,2.77
2019-05-10T11:28:16.784Z,2.58
2019-05-10T11:30:47.212Z,2.90
2019-05-10T11:33:29.159Z,2.73
2019-05-10T11:35:46.617Z,2.83
2019-05-10T11:38:16.277Z,2.83
2019-05-10T11:40:45.426Z,2.80
2019-05-10T11:43:17.387Z,2.63
2019-05-10T11:45:45.562Z,2.10
2019-05-10T11:48:14.244Z,2.63
2019-05-10T11:50:42.820Z,2.42
2019-05-10T11:53:13.400Z,2.80
2019-05-10T11:55:43.621Z,2.30
2019-05-10T11:59:04.404Z,2.77
2019-05-10T12:00:44.550Z,2.70
2019-05-10T12:03:18.500Z,3.00
2019-05-10T12:05:44.064Z,2.55
2019-05-10T12:08:13.752Z,1.98
2019-05-10T12:10:52.283Z,2.57
2019-05-10T12:13:19.283Z,2.58
2019-05-10T12:15:45.967Z,2.47
2019-05-10T12:18:15.201Z,2.62
2019-05-10T12:20:55.573Z,2.75
2019-05-10T12:23:23.002Z,2.70
2019-05-10T12:26:20.084Z,2.35
2019-05-10T12:28:24.062Z,2.40
2019-05-10T12:30:50.904Z,2.52
2019-05-10T12:33:24.895Z,2.43
2019-05-10T12:35:50.982Z,2.42
2019-05-10T12:38:23.678Z,2.33
2019-05-10T12:40:51.341Z,2.45
2019-05-10T12:43:21.255Z,2.80
2019-05-10T12:45:51.718Z,2.50
2019-05-10T12:48:23.155Z,2.87
2019-05-10T12:50:52.239Z,2.80
2019-05-10T12:53:21.549Z,3.00
2019-05-10T12:55:50.330Z,2.85
2019-05-10T12:58:18.896Z,2.63
2019-05-10T13:00:52.377Z,3.02
2019-05-10T13:03:19.364Z,3.00
2019-05-10T13:05:52.592Z,3.47
2019-05-10T13:08:19.886Z,3.90
2019-05-10T13:10:49.901Z,3.70
2019-05-10T13:13:23.759Z,3.60
2019-05-10T13:15:49.596Z,3.90
2019-05-10T13:18:23.111Z,3.70
2019-05-10T13:20:53.279Z,3.27
2019-05-10T13:23:25.514Z,3.83
2019-05-10T13:25:59.327Z,4.30
2019-05-10T13:28:34.507Z,5.28
2019-05-10T13:31:07.184Z,3.40
2019-05-10T13:36:06.144Z,3.10
2019-05-10T13:38:36.907Z,2.42
2019-05-10T13:41:07.916Z,3.10
2019-05-10T13:43:36.692Z,3.20
2019-05-10T13:46:07.753Z,3.18
2019-05-10T13:48:37.444Z,3.43
2019-05-10T13:51:06.120Z,3.47
2019-05-10T13:53:34.922Z,3.60
2019-05-10T13:56:04.451Z,4.10
2019-05-10T13:58:32.968Z,9.68
2019-05-10T14:01:06.801Z,7.83
2019-05-10T14:03:43.192Z,7.50
2019-05-10T14:06:05.038Z,11.35
2019-05-10T14:08:34.374Z,4.33
2019-05-10T14:11:03.459Z,5.30
2019-05-10T14:13:35.650Z,3.92
2019-05-10T14:16:03.253Z,5.08
2019-05-10T14:18:33.206Z,7.05
2019-05-10T14:21:04.090Z,5.05
2019-05-10T14:23:35.120Z,8.90
2019-05-10T14:26:02.741Z,4.97
2019-05-10T14:28:33.453Z,7.85
2019-05-10T14:31:02.385Z,8.67
2019-05-10T14:33:31.980Z,4.67
2019-05-10T14:36:03.930Z,3.83
2019-05-10T14:38:32.467Z,8.88
2019-05-10T14:41:04.033Z,4.90
2019-05-10T14:43:31.678Z,4.15
2019-05-10T14:46:02.864Z,3.50
2019-05-10T14:48:35.303Z,3.50
2019-05-10T14:51:11.014Z,3.90
2019-05-10T14:53:34.251Z,3.30
2019-05-10T14:56:07.863Z,4.05
2019-05-10T14:58:33.552Z,3.77
2019-05-10T15:01:04.069Z,4.10
2019-05-10T15:03:35.309Z,4.15
2019-05-10T15:06:02.728Z,3.50
2019-05-10T15:08:31.261Z,3.10
2019-05-10T15:11:00.108Z,3.70
2019-05-10T15:13:29.005Z,3.90
2019-05-10T15:15:57.562Z,3.30
2019-05-10T15:18:26.292Z,3.08
2019-05-10T15:20:54.783Z,3.45
2019-05-10T15:23:23.312Z,3.77
2019-05-10T15:25:56.945Z,4.65
2019-05-10T15:28:22.191Z,4.70
2019-05-10T15:30:52.580Z,4.57
2019-05-10T15:33:21.215Z,4.20
2019-05-10T15:35:51.862Z,3.50
2019-05-10T15:38:20.252Z,4.63
2019-05-10T15:40:48.725Z,3.87
2019-05-10T15:43:18.998Z,4.00
2019-05-10T15:45:52.471Z,4.20
2019-05-10T15:48:17.910Z,4.10
2019-05-10T15:50:46.396Z,4.45
2019-05-10T15:53:22.982Z,5.37
2019-05-10T15:55:45.547Z,12.50
2019-05-10T15:58:14.354Z,9.15
2019-05-10T16:00:45.464Z,11.28
2019-05-10T16:03:13.962Z,11.80
2019-05-10T16:05:44.196Z,14.13
2019-05-10T16:08:13.843Z,9.25
2019-05-10T16:10:46.920Z,9.43
2019-05-10T16:13:23.270Z,6.90
2019-05-10T16:15:51.675Z,13.13
2019-05-10T16:18:17.503Z,7.00
2019-05-10T16:20:46.301Z,6.10
2019-05-10T16:23:15.383Z,7.30
2019-05-10T16:25:48.553Z,6.92
2019-05-10T16:28:20.907Z,11.23
2019-05-10T16:30:47.125Z,12.15
2019-05-10T16:33:18.136Z,12.78
2019-05-10T16:35:49.668Z,10.93
2019-05-10T16:38:16.441Z,10.00
2019-05-10T16:40:57.473Z,11.77
2019-05-10T16:43:22.113Z,11.73
2019-05-10T16:45:47.579Z,10.10
2019-05-10T16:48:16.205Z,6.93
2019-05-10T16:50:45.500Z,8.00
2019-05-10T16:53:14.321Z,7.95
2019-05-10T16:55:43.110Z,7.33
2019-05-10T16:58:15.127Z,8.40
2019-05-10T17:00:48.630Z,7.50
2019-05-10T17:03:18.538Z,11.13
2019-05-10T17:05:53.655Z,7.25
2019-05-10T17:08:18.421Z,7.63
2019-05-10T17:10:50.041Z,8.48
2019-05-10T17:13:36.434Z,7.05
2019-05-10T17:16:20.740Z,8.38
2019-05-10T17:18:59.719Z,8.20
2019-05-10T17:24:44.873Z,8.40
2019-05-10T17:27:29.910Z,7.37
2019-05-10T17:30:13.586Z,8.60
2019-05-10T17:33:04.083Z,8.80
2019-05-10T17:35:42.241Z,9.18
2019-05-10T17:38:37.665Z,9.15
2019-05-10T17:41:10.866Z,10.00
2019-05-10T17:43:54.637Z,9.65
2019-05-10T17:46:21.114Z,10.90
2019-05-10T17:48:49.735Z,10.23
2019-05-10T17:51:18.557Z,11.22
2019-05-10T17:53:47.569Z,10.57
2019-05-10T17:56:16.637Z,10.63
2019-05-10T17:58:45.245Z,11.93
2019-05-10T18:01:14.450Z,11.22
2019-05-10T18:03:45.270Z,12.53
2019-05-10T18:06:23.672Z,11.63
2019-05-10T18:08:44.585Z,12.05
2019-05-10T18:11:13.461Z,10.40
2019-05-10T18:13:42.597Z,10.45
2019-05-10T18:16:13.286Z,11.08
2019-05-10T18:18:46.754Z,10.18
2019-05-10T18:21:21.666Z,10.67
2019-05-10T18:23:47.225Z,9.95
2019-05-10T18:26:16.027Z,12.30
2019-05-10T18:28:45.012Z,12.43
2019-05-10T18:31:13.890Z,11.05
2019-05-10T18:33:44.879Z,11.30
2019-05-10T18:36:13.110Z,12.03
2019-05-10T18:38:41.690Z,12.53
2019-05-10T18:41:11.843Z,12.27
2019-05-10T18:43:42.834Z,11.43
2019-05-10T18:46:11.544Z,13.70
2019-05-10T18:48:40.112Z,13.53
2019-05-10T18:51:09.117Z,13.23
2019-05-10T18:53:37.696Z,12.40
2019-05-10T18:56:09.029Z,12.27
2019-05-10T18:58:37.632Z,13.58
2019-05-10T19:01:06.872Z,14.47
2019-05-10T19:03:35.604Z,16.35
2019-05-10T19:06:10.918Z,17.93
2019-05-10T19:08:44.373Z,16.82
2019-05-10T19:11:15.986Z,17.57
2019-05-10T19:13:51.226Z,18.75
2019-05-10T19:16:16.427Z,19.03
2019-05-10T19:18:47.119Z,20.80
2019-05-10T19:21:16.509Z,23.67
2019-05-10T19:23:52.282Z,22.42
2019-05-10T19:26:23.786Z,22.32
2019-05-10T19:28:52.864Z,20.75
2019-05-10T19:31:22.101Z,22.37
2019-05-10T19:34:08.999Z,17.73
2019-05-10T19:36:39.825Z,15.50
2019-05-10T19:39:10.958Z,19.05
2019-05-10T19:41:42.052Z,18.85
2019-05-10T19:44:10.707Z,21.40
2019-05-10T19:46:45.646Z,19.17
2019-05-10T19:49:17.515Z,22.17
2019-05-10T19:51:48.774Z,23.62
2019-05-10T19:54:21.071Z,22.43
2019-05-10T19:56:48.803Z,22.13
2019-05-10T19:59:17.646Z,22.13
2019-05-10T20:01:47.419Z,22.03
2019-05-10T20:04:18.182Z,23.07
2019-05-10T20:06:46.776Z,21.23
2019-05-10T20:09:18.549Z,23.42
2019-05-10T20:11:47.472Z,23.32
2019-05-10T20:14:17.000Z,17.67
2019-05-10T20:16:52.848Z,20.68
2019-05-10T20:19:20.855Z,22.55
2019-05-10T20:21:51.136Z,21.20
2019-05-10T20:24:20.003Z,21.13
2019-05-10T20:26:49.634Z,21.30
2019-05-10T20:29:18.437Z,20.48
2019-05-10T20:31:47.121Z,22.67
2019-05-10T20:34:28.063Z,22.87
2019-05-10T20:36:55.175Z,20.62
2019-05-10T20:39:24.344Z,22.40
2019-05-10T20:41:53.210Z,19.17
2019-05-10T20:44:21.747Z,19.77
2019-05-10T20:46:50.754Z,21.10
2019-05-10T20:49:19.256Z,20.30
2019-05-10T20:51:48.128Z,17.43
2019-05-10T20:54:17.041Z,21.07
2019-05-10T20:56:45.948Z,19.32
2019-05-10T20:59:16.084Z,19.67
2019-05-10T21:01:44.923Z,18.25
2019-05-10T21:04:14.451Z,17.87
2019-05-10T21:06:43.125Z,17.82
2019-05-10T21:09:12.437Z,16.97
2019-05-10T21:11:41.104Z,14.73
2019-05-10T21:14:10.118Z,14.70
2019-05-10T21:16:39.246Z,14.63
2019-05-10T21:19:07.782Z,15.32
2019-05-10T21:21:36.632Z,16.45
2019-05-10T21:24:07.001Z,16.62
2019-05-10T21:26:35.871Z,16.87
2019-05-10T21:29:05.775Z,19.00
2019-05-10T21:31:34.842Z,17.70
2019-05-10T21:34:09.778Z,19.37
2019-05-10T21:36:33.560Z,16.95
2019-05-10T21:39:02.116Z,18.30
2019-05-10T21:41:32.112Z,18.62
2019-05-10T21:44:01.185Z,20.48
2019-05-10T21:46:29.695Z,20.52
2019-05-10T21:48:58.176Z,20.72
2019-05-10T21:51:26.707Z,21.35
2019-05-10T21:53:56.931Z,20.92
2019-05-10T21:56:25.721Z,21.48
2019-05-10T21:58:54.216Z,22.37
2019-05-10T22:01:23.119Z,22.80
2019-05-10T22:03:51.981Z,22.20
2019-05-10T22:06:20.521Z,20.07
2019-05-10T22:08:49.972Z,20.68
2019-05-10T22:11:18.887Z,20.77
2019-05-10T22:13:47.871Z,22.00
2019-05-10T22:16:16.862Z,21.27
2019-05-10T22:18:48.211Z,23.05
2019-05-10T22:21:17.124Z,21.55
2019-05-10T22:23:47.536Z,23.05
2019-05-10T22:26:16.028Z,21.63
2019-05-10T22:28:47.427Z,22.47
2019-05-10T22:31:16.064Z,21.20
2019-05-10T22:33:44.942Z,22.83
2019-05-10T22:36:13.460Z,22.40
2019-05-10T22:38:42.325Z,21.70
2019-05-10T22:41:11.350Z,24.60
2019-05-10T22:43:40.184Z,22.17
2019-05-10T22:46:09.153Z,22.63
2019-05-10T22:48:37.710Z,21.87
2019-05-10T22:51:06.702Z,21.90
2019-05-10T22:53:35.287Z,21.97
2019-05-10T22:56:03.992Z,22.90
2019-05-10T22:58:32.860Z,22.77
2019-05-10T23:01:01.444Z,22.87
2019-05-10T23:03:30.026Z,23.05
2019-05-10T23:05:59.122Z,22.05
2019-05-10T23:08:28.017Z,20.95
2019-05-10T23:10:58.135Z,21.45
2019-05-10T23:13:26.911Z,22.22
2019-05-10T23:15:56.002Z,22.10
2019-05-10T23:18:24.998Z,20.62
2019-05-10T23:20:54.198Z,22.67
2019-05-10T23:23:22.777Z,21.07
2019-05-10T23:25:51.358Z,19.55
2019-05-10T23:28:20.371Z,19.17
2019-05-10T23:30:49.257Z,19.80
2019-05-10T23:33:18.126Z,19.62
2019-05-10T23:35:46.927Z,19.75
2019-05-10T23:38:15.928Z,19.00
2019-05-10T23:40:47.377Z,19.83
2019-05-10T23:43:15.948Z,21.90
2019-05-10T23:45:46.668Z,20.93
2019-05-10T23:48:15.188Z,20.43
2019-05-10T23:50:44.719Z,22.53
2019-05-10T23:53:13.335Z,23.33
2019-05-10T23:55:41.930Z,20.92
2019-05-10T23:58:10.937Z,19.45
